createdAt,value
2022-07-29T00:02:00.097Z,1.77
2022-07-29T00:06:44.097Z,1.70
2022-07-29T00:11:27.757Z,1.50
2022-07-29T00:16:11.626Z,1.80
2022-07-29T00:20:57.023Z,1.83
2022-07-29T00:25:40.758Z,1.60
2022-07-29T00:30:24.862Z,1.70
2022-07-29T00:35:27.011Z,1.80
2022-07-29T00:40:13.316Z,1.87
2022-07-29T00:44:56.873Z,2.20
2022-07-29T00:49:41.822Z,1.83
2022-07-29T00:54:25.597Z,2.10
2022-07-29T00:59:10.562Z,1.73
2022-07-29T01:03:54.139Z,1.80
2022-07-29T01:08:39.001Z,1.87
2022-07-29T01:13:23.464Z,1.80
2022-07-29T01:18:18.121Z,1.90
2022-07-29T01:23:31.197Z,2.27
2022-07-29T01:28:37.210Z,1.87
2022-07-29T01:33:42.313Z,1.93
2022-07-29T01:38:29.995Z,2.80
2022-07-29T01:43:16.714Z,3.77
2022-07-29T01:48:05.237Z,2.83
2022-07-29T01:52:59.062Z,3.10
2022-07-29T01:57:46.387Z,3.03
2022-07-29T02:02:31.350Z,3.23
2022-07-29T02:07:19.818Z,2.93
2022-07-29T02:12:05.433Z,2.97
2022-07-29T02:16:50.916Z,2.90
2022-07-29T02:21:35.880Z,2.93
2022-07-29T02:26:22.888Z,2.90
2022-07-29T02:31:08.227Z,3.27
2022-07-29T02:35:53.168Z,4.03
2022-07-29T02:40:38.368Z,4.13
2022-07-29T02:45:24.369Z,4.27
2022-07-29T02:50:13.578Z,4.07
2022-07-29T02:55:00.455Z,3.57
2022-07-29T02:59:45.985Z,3.87
2022-07-29T03:04:33.253Z,3.83
2022-07-29T03:09:17.272Z,3.80
2022-07-29T03:14:01.013Z,4.23
2022-07-29T03:18:44.915Z,5.03
2022-07-29T03:23:36.714Z,5.73
2022-07-29T03:28:20.947Z,6.87
2022-07-29T03:33:05.758Z,7.90
2022-07-29T03:37:57.357Z,9.97
2022-07-29T03:42:44.316Z,9.17
2022-07-29T03:47:49.811Z,8.70
2022-07-29T03:52:34.189Z,7.67
2022-07-29T03:57:18.594Z,7.77
2022-07-29T04:02:05.303Z,8.50
2022-07-29T04:06:49.611Z,7.97
2022-07-29T04:11:33.748Z,10.53
2022-07-29T04:16:47.832Z,9.93
2022-07-29T04:21:33.010Z,8.47
2022-07-29T04:26:16.836Z,7.33
2022-07-29T04:31:00.631Z,8.10
2022-07-29T04:35:49.961Z,8.27
2022-07-29T04:40:38.757Z,8.83
2022-07-29T04:45:25.387Z,8.57
2022-07-29T04:50:10.781Z,12.10
2022-07-29T04:54:55.241Z,18.80
2022-07-29T04:59:42.163Z,18.73
2022-07-29T05:04:25.826Z,19.50
2022-07-29T05:09:11.644Z,22.67
2022-07-29T05:14:15.740Z,20.60
2022-07-29T05:19:01.224Z,18.97
2022-07-29T05:23:45.153Z,22.50
2022-07-29T05:28:28.856Z,29.57
2022-07-29T05:33:35.834Z,41.37
2022-07-29T05:38:18.416Z,41.20
2022-07-29T05:43:02.266Z,58.50
2022-07-29T05:47:46.605Z,63.90
2022-07-29T05:52:30.771Z,63.67
2022-07-29T05:57:19.683Z,64.10
2022-07-29T06:02:03.323Z,62.90
2022-07-29T06:06:47.418Z,60.77
2022-07-29T06:11:54.643Z,52.50
2022-07-29T06:16:39.755Z,51.67
2022-07-29T06:21:23.722Z,52.40
2022-07-29T06:26:08.251Z,47.67
2022-07-29T06:30:51.822Z,39.13
2022-07-29T06:35:42.430Z,33.10
2022-07-29T06:40:46.152Z,36.03
2022-07-29T06:45:42.490Z,36.57
2022-07-29T06:50:26.393Z,34.43
2022-07-29T06:55:13.664Z,32.77
2022-07-29T07:00:10.404Z,34.73
2022-07-29T07:04:55.416Z,30.20
2022-07-29T07:09:42.119Z,30.80
2022-07-29T07:14:29.047Z,33.27
2022-07-29T07:19:12.774Z,32.83
2022-07-29T07:23:58.130Z,33.43
2022-07-29T07:28:42.183Z,33.60
2022-07-29T07:33:27.503Z,29.77
2022-07-29T07:38:11.227Z,28.52
2022-07-29T07:42:55.132Z,29.60
2022-07-29T07:47:39.186Z,30.33
2022-07-29T07:52:25.697Z,32.15
2022-07-29T07:57:09.260Z,33.20
2022-07-29T08:01:56.143Z,30.23
2022-07-29T08:06:40.615Z,31.05
2022-07-29T08:11:28.633Z,28.38
2022-07-29T08:16:19.226Z,27.45
2022-07-29T08:21:03.118Z,28.00
2022-07-29T08:25:47.008Z,27.10
2022-07-29T08:30:36.513Z,23.80
2022-07-29T08:35:20.702Z,19.38
2022-07-29T08:40:09.814Z,17.20
2022-07-29T08:44:54.797Z,13.63
2022-07-29T08:49:40.194Z,14.38
2022-07-29T08:54:24.730Z,10.00
2022-07-29T08:59:11.766Z,11.65
2022-07-29T09:04:00.339Z,10.32
2022-07-29T09:08:45.965Z,10.40
2022-07-29T09:13:29.721Z,10.25
2022-07-29T09:18:26.123Z,10.85
2022-07-29T09:23:14.418Z,11.18
2022-07-29T09:28:12.607Z,10.90
2022-07-29T09:32:57.270Z,9.55
2022-07-29T09:37:41.175Z,8.75
2022-07-29T09:42:33.525Z,8.32
2022-07-29T09:47:19.464Z,7.53
2022-07-29T09:52:07.198Z,7.68
2022-07-29T09:56:51.192Z,9.35
2022-07-29T10:01:34.811Z,8.88
2022-07-29T10:06:20.123Z,11.07
2022-07-29T10:11:13.077Z,11.38
2022-07-29T10:15:57.155Z,12.80
2022-07-29T10:20:41.618Z,13.07
2022-07-29T10:25:27.685Z,13.70
2022-07-29T10:30:13.109Z,12.25
2022-07-29T10:35:20.883Z,11.32
2022-07-29T10:40:29.641Z,10.68
2022-07-29T10:45:18.928Z,7.00
2022-07-29T10:50:04.137Z,6.97
2022-07-29T10:54:54.813Z,6.13
2022-07-29T10:59:42.566Z,5.20
2022-07-29T11:05:02.714Z,4.20
2022-07-29T11:10:23.188Z,4.65
2022-07-29T11:15:19.953Z,4.32
2022-07-29T11:20:37.949Z,4.35
2022-07-29T11:25:50.688Z,2.50
2022-07-29T11:30:51.821Z,2.20
2022-07-29T11:35:39.993Z,2.00
2022-07-29T11:40:27.061Z,2.38
2022-07-29T11:45:43.289Z,2.20
2022-07-29T11:50:21.265Z,2.20
2022-07-29T11:55:14.768Z,1.92
2022-07-29T12:00:04.861Z,1.70
2022-07-29T12:05:10.842Z,2.20
2022-07-29T12:09:56.772Z,1.90
2022-07-29T12:14:48.500Z,2.08
2022-07-29T12:19:44.777Z,2.28
2022-07-29T12:24:28.477Z,1.90
2022-07-29T12:29:20.421Z,1.92
2022-07-29T12:34:26.403Z,1.67
2022-07-29T12:39:11.226Z,2.10
2022-07-29T12:43:55.958Z,2.15
2022-07-29T12:48:42.388Z,2.25
2022-07-29T12:53:28.660Z,2.10
2022-07-29T12:58:12.867Z,2.38
2022-07-29T13:02:59.010Z,2.03
2022-07-29T13:07:55.090Z,2.28
2022-07-29T13:12:57.822Z,2.25
2022-07-29T13:17:44.767Z,2.17
2022-07-29T13:22:31.929Z,1.90
2022-07-29T13:27:19.709Z,1.88
2022-07-29T13:32:05.371Z,2.00
2022-07-29T13:36:49.223Z,2.40
2022-07-29T13:41:32.683Z,1.92
2022-07-29T13:46:16.432Z,1.90
2022-07-29T13:51:02.748Z,2.22
2022-07-29T13:55:49.480Z,1.83
2022-07-29T14:00:33.481Z,2.13
2022-07-29T14:05:17.166Z,2.17
2022-07-29T14:10:02.233Z,1.83
2022-07-29T14:14:47.323Z,2.15
2022-07-29T14:19:33.103Z,2.10
2022-07-29T14:24:17.819Z,2.80
2022-07-29T14:29:09.402Z,2.00
2022-07-29T14:33:53.785Z,2.40
2022-07-29T14:38:38.328Z,2.33
2022-07-29T14:43:21.964Z,2.25
2022-07-29T14:48:07.714Z,2.40
2022-07-29T14:52:52.055Z,2.50
2022-07-29T14:57:38.999Z,2.47
2022-07-29T15:02:25.650Z,2.05
2022-07-29T15:07:20.980Z,2.20
2022-07-29T15:12:05.740Z,2.03
2022-07-29T15:16:49.638Z,2.22
2022-07-29T15:21:36.530Z,2.42
2022-07-29T15:26:43.599Z,2.20
2022-07-29T15:31:27.716Z,2.80
2022-07-29T15:36:25.450Z,2.00
2022-07-29T15:41:17.002Z,1.90
2022-07-29T15:46:22.579Z,2.33
2022-07-29T15:51:06.378Z,2.58
2022-07-29T15:55:50.452Z,2.17
2022-07-29T16:00:34.812Z,2.67
2022-07-29T16:05:20.122Z,2.38
2022-07-29T16:10:05.284Z,2.50
2022-07-29T16:15:09.756Z,2.20
2022-07-29T16:20:03.320Z,2.50
2022-07-29T16:24:53.100Z,2.72
2022-07-29T16:29:55.476Z,2.92
2022-07-29T16:35:15.710Z,3.40
2022-07-29T16:45:13.989Z,3.65
2022-07-29T16:49:57.988Z,4.30
2022-07-29T16:54:42.668Z,6.25
2022-07-29T16:59:27.747Z,7.00
2022-07-29T17:04:15.116Z,7.65
2022-07-29T17:08:59.362Z,7.57
2022-07-29T17:13:43.557Z,6.38
2022-07-29T17:18:29.186Z,7.50
2022-07-29T17:23:13.451Z,6.30
2022-07-29T17:28:00.953Z,6.03
2022-07-29T17:32:45.571Z,5.30
2022-07-29T17:37:30.670Z,5.93
2022-07-29T17:42:15.860Z,5.38
2022-07-29T17:47:00.933Z,3.72
2022-07-29T17:51:45.060Z,3.47
2022-07-29T17:56:30.656Z,3.55
2022-07-29T18:01:15.136Z,3.50
2022-07-29T18:06:00.731Z,4.00
2022-07-29T18:10:45.362Z,3.53
2022-07-29T18:15:31.524Z,3.67
2022-07-29T18:20:18.421Z,3.78
2022-07-29T18:25:07.709Z,4.30
2022-07-29T18:29:55.268Z,3.95
2022-07-29T18:34:41.034Z,4.18
2022-07-29T18:39:25.504Z,3.95
2022-07-29T18:44:09.829Z,3.20
2022-07-29T18:48:57.328Z,3.42
2022-07-29T18:53:42.354Z,3.30
2022-07-29T18:58:26.270Z,3.72
2022-07-29T19:03:13.014Z,3.50
2022-07-29T19:08:00.183Z,3.67
2022-07-29T19:12:45.597Z,3.70
2022-07-29T19:17:29.635Z,3.33
2022-07-29T19:22:14.445Z,3.50
2022-07-29T19:26:59.575Z,3.30
2022-07-29T19:31:46.227Z,3.10
2022-07-29T19:36:31.482Z,3.30
2022-07-29T19:41:18.512Z,3.33
2022-07-29T19:46:03.161Z,3.10
2022-07-29T19:50:49.137Z,2.73
2022-07-29T19:55:36.909Z,2.93
2022-07-29T20:00:21.668Z,2.63
2022-07-29T20:05:08.887Z,2.70
2022-07-29T20:09:57.428Z,2.70
2022-07-29T20:14:46.113Z,3.03
2022-07-29T20:19:31.087Z,3.00
2022-07-29T20:24:15.257Z,3.23
2022-07-29T20:29:00.556Z,2.80
2022-07-29T20:33:44.516Z,3.50
2022-07-29T20:38:28.752Z,3.23
2022-07-29T20:43:13.379Z,2.97
2022-07-29T20:47:59.114Z,3.43
2022-07-29T20:52:45.550Z,3.30
2022-07-29T20:57:39.379Z,3.10
2022-07-29T21:02:23.950Z,3.20
2022-07-29T21:07:12.664Z,3.20
2022-07-29T21:11:56.993Z,3.30
2022-07-29T21:16:41.066Z,3.20
2022-07-29T21:21:27.113Z,2.90
2022-07-29T21:26:14.125Z,3.10
2022-07-29T21:30:59.722Z,3.10
2022-07-29T21:36:06.908Z,3.30
2022-07-29T21:40:49.339Z,3.20
2022-07-29T21:45:35.265Z,3.97
2022-07-29T21:50:19.672Z,3.10
2022-07-29T21:55:04.327Z,3.03
2022-07-29T21:59:48.376Z,3.60
2022-07-29T22:04:36.016Z,3.43
2022-07-29T22:09:20.467Z,3.20
2022-07-29T22:14:04.826Z,3.50
2022-07-29T22:18:54.478Z,3.70
2022-07-29T22:23:40.297Z,3.30
2022-07-29T22:28:24.867Z,3.40
2022-07-29T22:33:09.307Z,3.37
2022-07-29T22:38:01.985Z,3.70
2022-07-29T22:42:52.206Z,4.07
2022-07-29T22:47:45.887Z,4.10
2022-07-29T22:52:32.820Z,3.57
2022-07-29T22:57:20.532Z,4.43
2022-07-29T23:02:06.565Z,4.73
2022-07-29T23:06:53.717Z,5.37
2022-07-29T23:11:37.687Z,8.00
2022-07-29T23:16:26.725Z,9.07
2022-07-29T23:21:16.323Z,4.97
2022-07-29T23:26:00.808Z,6.13
2022-07-29T23:30:45.715Z,6.53
2022-07-29T23:35:31.379Z,5.70
2022-07-29T23:40:25.899Z,5.63
2022-07-29T23:50:13.668Z,4.60
2022-07-29T23:55:37.378Z,4.67
